NCAR-RAP Real-Time Weather Data

Output produced by METARs form (07 February 2016  12:46 UTC)
found at http://weather.rap.ucar.edu/surface/
 
Conditions at: KSDF observed 07 February 2016  11:56 UTC
Temperature: 2.8°C (37°F)
Dewpoint: -6.1°C (21°F) [RH = 52%]
Pressure (altimeter): 30.14 inches Hg (1020.7 mb)
[Sea-level pressure: 1020.9 mb]
Winds: from the SSW (210 degrees) at 6 MPH (5 knots; 2.6 m/s)
Visibility: 10 or more miles (16+ km)
Ceiling: at least 12,000 feet AGL
Clouds: few clouds at 25000 feet AGL
Present Weather: no significant weather observed at this time
KSDF 071156Z 21005KT 10SM FEW250 03/M06 A3014 RMK AO2 SLP209 T00281061 10028 21006 56012